Time,TemperatureF,DewpointF,PressureIn,WindDirection,WindDirectionDegrees,WindSpeedMPH,WindSpeedGustMPH,Humidity,HourlyPrecipIn,Conditions,Clouds,dailyrainin,SoftwareType,DateUTC
2013-03-06 00:12:00,11.2,9.0,30.43,NW,312,0.0,1.0,89,0.00,,,0.00,weatherlink.com 1.10,2013-03-06 06:12:00,
2013-03-06 00:27:00,9.9,7.0,30.43,NW,311,0.0,0.0,89,0.00,,,0.00,weatherlink.com 1.10,2013-03-06 06:27:00,
2013-03-06 00:42:00,9.0,6.0,30.43,NW,312,0.0,0.0,89,0.00,,,0.00,weatherlink.com 1.10,2013-03-06 06:42:00,
2013-03-06 00:57:00,8.2,6.0,30.44,NW,311,0.0,0.0,89,0.00,,,0.00,weatherlink.com 1.10,2013-03-06 06:57:00,
2013-03-06 01:12:00,7.1,4.0,30.45,NW,311,0.0,0.0,88,0.00,,,0.00,weatherlink.com 1.10,2013-03-06 07:12:00,
2013-03-06 01:27:00,6.3,4.0,30.45,NW,312,0.0,0.0,89,0.00,,,0.00,weatherlink.com 1.10,2013-03-06 07:27:00,
2013-03-06 01:42:00,5.8,3.0,30.45,NW,311,0.0,0.0,89,0.00,,,0.00,weatherlink.com 1.10,2013-03-06 07:42:00,
2013-03-06 01:57:00,5.4,3.0,30.45,NW,312,0.0,0.0,89,0.00,,,0.00,weatherlink.com 1.10,2013-03-06 07:57:00,
2013-03-06 02:12:00,4.9,2.0,30.45,NW,311,0.0,0.0,89,0.00,,,0.00,weatherlink.com 1.10,2013-03-06 08:12:00,
2013-03-06 02:27:00,4.3,2.0,30.44,NW,311,0.0,0.0,88,0.00,,,0.00,weatherlink.com 1.10,2013-03-06 08:27:00,
2013-03-06 02:42:00,3.6,1.0,30.45,NW,312,0.0,0.0,87,0.00,,,0.00,weatherlink.com 1.10,2013-03-06 08:42:00,
2013-03-06 02:58:00,2.4,-1.0,30.45,NW,311,0.0,0.0,86,0.00,,,0.00,weatherlink.com 1.10,2013-03-06 08:58:00,
2013-03-06 03:13:00,1.9,-1.0,30.45,NW,311,0.0,0.0,88,0.00,,,0.00,weatherlink.com 1.10,2013-03-06 09:13:00,
2013-03-06 03:28:00,1.6,-1.0,30.46,NW,311,0.0,0.0,87,0.00,,,0.00,weatherlink.com 1.10,2013-03-06 09:28:00,
2013-03-06 03:43:00,0.8,-2.0,30.46,NW,312,0.0,0.0,87,0.00,,,0.00,weatherlink.com 1.10,2013-03-06 09:43:00,
2013-03-06 03:58:00,0.2,-3.0,30.46,NW,311,0.0,0.0,87,0.00,,,0.00,weatherlink.com 1.10,2013-03-06 09:58:00,
2013-03-06 04:13:00,-0.3,-3.0,30.46,NW,311,0.0,0.0,87,0.00,,,0.00,weatherlink.com 1.10,2013-03-06 10:13:00,
2013-03-06 04:28:00,-0.5,-3.0,30.47,NW,311,0.0,0.0,88,0.00,,,0.00,weatherlink.com 1.10,2013-03-06 10:28:00,
2013-03-06 04:43:00,-0.8,-4.0,30.47,NW,311,0.0,0.0,87,0.00,,,0.00,weatherlink.com 1.10,2013-03-06 10:43:00,
2013-03-06 04:58:00,-1.0,-4.0,30.47,NW,311,0.0,0.0,88,0.00,,,0.00,weatherlink.com 1.10,2013-03-06 10:58:00,
2013-03-06 05:13:00,-0.6,-3.0,30.48,NW,312,0.0,0.0,89,0.00,,,0.00,weatherlink.com 1.10,2013-03-06 11:13:00,
2013-03-06 05:28:00,-0.1,-3.0,30.48,NW,312,0.0,0.0,89,0.00,,,0.00,weatherlink.com 1.10,2013-03-06 11:28:00,
2013-03-06 05:43:00,0.5,-2.0,30.48,NW,311,0.0,0.0,90,0.00,,,0.00,weatherlink.com 1.10,2013-03-06 11:43:00,
2013-03-06 05:58:00,1.7,0.0,30.49,NW,311,0.0,1.0,92,0.00,,,0.00,weatherlink.com 1.10,2013-03-06 11:58:00,
2013-03-06 06:13:00,2.6,1.0,30.49,NW,311,0.0,1.0,91,0.00,,,0.00,weatherlink.com 1.10,2013-03-06 12:13:00,
2013-03-06 06:29:00,3.5,2.0,30.50,NW,311,0.0,1.0,91,0.00,,,0.00,weatherlink.com 1.10,2013-03-06 12:29:00,
2013-03-06 06:44:00,4.2,2.0,30.50,NW,311,0.0,0.0,91,0.00,,,0.00,weatherlink.com 1.10,2013-03-06 12:44:00,
2013-03-06 06:59:00,5.0,3.0,30.51,NW,311,1.0,1.0,91,0.00,,,0.00,weatherlink.com 1.10,2013-03-06 12:59:00,
2013-03-06 07:14:00,5.5,4.0,30.51,NW,311,0.0,0.0,91,0.00,,,0.00,weatherlink.com 1.10,2013-03-06 13:14:00,
2013-03-06 07:29:00,6.2,4.0,30.52,NW,311,0.0,0.0,91,0.00,,,0.00,weatherlink.com 1.10,2013-03-06 13:29:00,
2013-03-06 07:44:00,7.4,6.0,30.52,NW,311,0.0,1.0,92,0.00,,,0.00,weatherlink.com 1.10,2013-03-06 13:44:00,
2013-03-06 07:59:00,8.3,7.0,30.52,NW,311,0.0,1.0,92,0.00,,,0.00,weatherlink.com 1.10,2013-03-06 13:59:00,
2013-03-06 08:14:00,9.3,7.0,30.52,NW,311,1.0,1.0,91,0.00,,,0.00,weatherlink.com 1.10,2013-03-06 14:14:00,
2013-03-06 08:29:00,10.6,9.0,30.52,NW,311,0.0,1.0,92,0.00,,,0.00,weatherlink.com 1.10,2013-03-06 14:29:00,
2013-03-06 08:44:00,13.2,12.0,30.52,SW,232,0.0,2.0,93,0.00,,,0.00,weatherlink.com 1.10,2013-03-06 14:44:00,
2013-03-06 08:59:00,14.8,13.0,30.52,WSW,244,0.0,2.0,91,0.00,,,0.00,weatherlink.com 1.10,2013-03-06 14:59:00,
2013-03-06 09:14:00,15.7,13.0,30.52,West,269,0.0,1.0,89,0.00,,,0.00,weatherlink.com 1.10,2013-03-06 15:14:00,
2013-03-06 09:29:00,16.1,13.0,30.52,West,259,1.0,3.0,88,0.00,,,0.00,weatherlink.com 1.10,2013-03-06 15:29:00,
2013-03-06 09:44:00,17.8,14.0,30.52,North,355,2.0,2.0,86,0.00,,,0.00,weatherlink.com 1.10,2013-03-06 15:44:00,
2013-03-06 10:00:00,19.1,16.0,30.52,NNE,32,0.0,4.0,86,0.00,,,0.00,weatherlink.com 1.10,2013-03-06 16:00:00,
2013-03-06 10:15:00,19.7,15.0,30.52,NW,320,2.0,7.0,81,0.00,,,0.00,weatherlink.com 1.10,2013-03-06 16:15:00,
2013-03-06 10:30:00,20.4,15.0,30.51,North,360,2.0,5.0,80,0.00,,,0.00,weatherlink.com 1.10,2013-03-06 16:30:00,
2013-03-06 10:45:00,20.9,15.0,30.51,NW,306,3.0,7.0,78,0.00,,,0.00,weatherlink.com 1.10,2013-03-06 16:45:00,
2013-03-06 11:00:00,21.9,16.0,30.51,NNE,30,0.0,5.0,77,0.00,,,0.00,weatherlink.com 1.10,2013-03-06 17:00:00,
2013-03-06 11:15:00,22.5,15.0,30.51,NE,35,2.0,6.0,74,0.01,,,0.01,weatherlink.com 1.10,2013-03-06 17:15:00,
2013-03-06 11:30:00,23.3,15.0,30.51,SW,230,2.0,5.0,71,0.01,,,0.01,weatherlink.com 1.10,2013-03-06 17:30:00,
2013-03-06 11:45:00,23.7,16.0,30.50,North,355,1.0,4.0,73,0.03,,,0.03,weatherlink.com 1.10,2013-03-06 17:45:00,
2013-03-06 12:00:00,23.4,16.0,30.50,South,169,1.0,3.0,73,0.04,,,0.04,weatherlink.com 1.10,2013-03-06 18:00:00,
2013-03-06 12:15:00,22.9,15.0,30.50,NNE,17,3.0,6.0,71,0.04,,,0.05,weatherlink.com 1.10,2013-03-06 18:15:00,
2013-03-06 12:45:00,24.4,17.0,30.49,WSW,246,3.0,6.0,74,0.04,,,0.07,weatherlink.com 1.10,2013-03-06 18:45:00,
2013-03-06 13:01:00,24.2,16.0,30.48,SSW,201,0.0,6.0,72,0.03,,,0.07,weatherlink.com 1.10,2013-03-06 19:01:00,
2013-03-06 13:16:00,23.5,16.0,30.48,NNE,14,2.0,6.0,74,0.04,,,0.09,weatherlink.com 1.10,2013-03-06 19:16:00,
2013-03-06 13:31:00,23.0,16.0,30.47,NNW,345,3.0,9.0,75,0.03,,,0.09,weatherlink.com 1.10,2013-03-06 19:31:00,
2013-03-06 13:46:00,23.9,16.0,30.46,West,260,1.0,4.0,73,0.03,,,0.10,weatherlink.com 1.10,2013-03-06 19:46:00,
2013-03-06 14:01:00,25.1,17.0,30.46,SW,227,1.0,4.0,72,0.03,,,0.10,weatherlink.com 1.10,2013-03-06 20:01:00,
2013-03-06 14:16:00,24.7,16.0,30.46,West,277,1.0,7.0,70,0.02,,,0.11,weatherlink.com 1.10,2013-03-06 20:16:00,
2013-03-06 14:31:00,24.9,17.0,30.46,WSW,254,1.0,7.0,71,0.02,,,0.11,weatherlink.com 1.10,2013-03-06 20:31:00,
2013-03-06 14:46:00,24.0,16.0,30.45,North,355,1.0,3.0,71,0.01,,,0.11,weatherlink.com 1.10,2013-03-06 20:46:00,
2013-03-06 15:01:00,23.5,16.0,30.46,NNE,23,0.0,3.0,73,0.01,,,0.11,weatherlink.com 1.10,2013-03-06 21:01:00,
2013-03-06 15:16:00,23.5,16.0,30.45,NW,319,0.0,4.0,74,0.01,,,0.12,weatherlink.com 1.10,2013-03-06 21:16:00,
2013-03-06 15:31:00,23.9,16.0,30.45,NW,319,0.0,1.0,73,0.01,,,0.12,weatherlink.com 1.10,2013-03-06 21:31:00,
2013-03-06 15:46:00,23.9,17.0,30.45,NNW,331,1.0,2.0,74,0.01,,,0.12,weatherlink.com 1.10,2013-03-06 21:46:00,
2013-03-06 16:01:00,24.5,16.0,30.44,WNW,288,1.0,3.0,71,0.01,,,0.12,weatherlink.com 1.10,2013-03-06 22:01:00,
2013-03-06 16:16:00,25.2,17.0,30.45,WNW,288,0.0,3.0,71,0.00,,,0.12,weatherlink.com 1.10,2013-03-06 22:16:00,
2013-03-06 16:31:00,24.7,17.0,30.45,SSW,200,1.0,2.0,71,0.01,,,0.13,weatherlink.com 1.10,2013-03-06 22:31:00,
2013-03-06 16:47:00,25.1,17.0,30.44,NNE,13,1.0,5.0,70,0.01,,,0.13,weatherlink.com 1.10,2013-03-06 22:47:00,
2013-03-06 17:02:00,23.9,16.0,30.45,North,355,1.0,3.0,73,0.01,,,0.13,weatherlink.com 1.10,2013-03-06 23:02:00,
2013-03-06 17:17:00,23.1,16.0,30.45,North,5,0.0,1.0,74,0.01,,,0.13,weatherlink.com 1.10,2013-03-06 23:17:00,
2013-03-06 17:32:00,22.5,16.0,30.45,North,5,0.0,1.0,75,0.00,,,0.13,weatherlink.com 1.10,2013-03-06 23:32:00,
2013-03-06 17:47:00,21.6,16.0,30.45,North,5,0.0,1.0,78,0.00,,,0.13,weatherlink.com 1.10,2013-03-06 23:47:00,
2013-03-06 18:02:00,20.5,16.0,30.45,North,5,0.0,1.0,82,0.00,,,0.13,weatherlink.com 1.10,2013-03-07 00:02:00,
2013-03-06 18:17:00,18.9,15.0,30.45,North,5,0.0,1.0,83,0.00,,,0.13,weatherlink.com 1.10,2013-03-07 00:17:00,
2013-03-06 18:32:00,17.3,13.0,30.45,North,5,0.0,1.0,84,0.00,,,0.13,weatherlink.com 1.10,2013-03-07 00:32:00,
2013-03-06 18:47:00,15.9,13.0,30.45,North,5,0.0,1.0,86,0.00,,,0.13,weatherlink.com 1.10,2013-03-07 00:47:00,
2013-03-06 19:02:00,14.8,12.0,30.46,North,5,0.0,1.0,88,0.00,,,0.13,weatherlink.com 1.10,2013-03-07 01:02:00,
2013-03-06 19:17:00,13.8,11.0,30.46,North,5,0.0,0.0,88,0.00,,,0.13,weatherlink.com 1.10,2013-03-07 01:17:00,
2013-03-06 19:32:00,12.8,10.0,30.46,North,5,0.0,0.0,88,0.00,,,0.13,weatherlink.com 1.10,2013-03-07 01:32:00,
2013-03-06 19:47:00,11.9,9.0,30.46,North,5,0.0,0.0,88,0.00,,,0.13,weatherlink.com 1.10,2013-03-07 01:47:00,
2013-03-06 20:02:00,10.9,8.0,30.47,North,5,0.0,0.0,88,0.00,,,0.13,weatherlink.com 1.10,2013-03-07 02:02:00,
2013-03-06 20:18:00,9.9,7.0,30.47,North,5,0.0,0.0,88,0.00,,,0.13,weatherlink.com 1.10,2013-03-07 02:18:00,
2013-03-06 20:33:00,9.0,6.0,30.47,North,5,0.0,0.0,89,0.00,,,0.13,weatherlink.com 1.10,2013-03-07 02:33:00,
2013-03-06 20:48:00,8.0,5.0,30.47,North,5,0.0,1.0,87,0.00,,,0.13,weatherlink.com 1.10,2013-03-07 02:48:00,
2013-03-06 21:03:00,6.6,4.0,30.47,North,5,0.0,1.0,88,0.00,,,0.13,weatherlink.com 1.10,2013-03-07 03:03:00,
2013-03-06 21:18:00,6.4,4.0,30.48,North,5,0.0,0.0,90,0.00,,,0.13,weatherlink.com 1.10,2013-03-07 03:18:00,
2013-03-06 21:33:00,6.4,4.0,30.48,North,5,0.0,1.0,90,0.00,,,0.13,weatherlink.com 1.10,2013-03-07 03:33:00,
2013-03-06 21:48:00,6.0,4.0,30.47,North,5,1.0,1.0,90,0.00,,,0.13,weatherlink.com 1.10,2013-03-07 03:48:00,
2013-03-06 22:03:00,6.2,4.0,30.47,North,5,0.0,1.0,90,0.00,,,0.13,weatherlink.com 1.10,2013-03-07 04:03:00,
2013-03-06 22:18:00,6.0,4.0,30.47,North,5,0.0,0.0,89,0.00,,,0.13,weatherlink.com 1.10,2013-03-07 04:18:00,
2013-03-06 22:33:00,5.0,2.0,30.48,North,5,0.0,0.0,86,0.00,,,0.13,weatherlink.com 1.10,2013-03-07 04:33:00,
2013-03-06 22:48:00,4.3,2.0,30.48,North,5,0.0,0.0,88,0.00,,,0.13,weatherlink.com 1.10,2013-03-07 04:48:00,
2013-03-06 23:03:00,3.9,1.0,30.47,North,5,0.0,1.0,89,0.00,,,0.13,weatherlink.com 1.10,2013-03-07 05:03:00,
2013-03-06 23:18:00,3.1,0.0,30.48,North,5,0.0,0.0,87,0.00,,,0.13,weatherlink.com 1.10,2013-03-07 05:18:00,
2013-03-06 23:34:00,2.8,0.0,30.47,North,5,0.0,0.0,88,0.00,,,0.13,weatherlink.com 1.10,2013-03-07 05:34:00,
2013-03-06 23:49:00,2.5,0.0,30.48,North,5,0.0,0.0,88,0.00,,,0.13,weatherlink.com 1.10,2013-03-07 05:49:00,